sensor_id;sensor_type;location;lat;lon;timestamp;temperature;humidity
75985;DHT22;65033;44.660;37.758;2022-11-14T00:00:59;26.85;41.97
75985;DHT22;65033;44.660;37.758;2022-11-14T00:02:28;26.84;41.94
75985;DHT22;65033;44.660;37.758;2022-11-14T00:03:50;26.84;41.94
75985;DHT22;65033;44.660;37.758;2022-11-14T00:05:12;26.84;41.95
75985;DHT22;65033;44.660;37.758;2022-11-14T00:06:35;26.85;41.93
75985;DHT22;65033;44.660;37.758;2022-11-14T00:07:57;26.83;41.90
75985;DHT22;65033;44.660;37.758;2022-11-14T00:09:19;26.83;41.93
75985;DHT22;65033;44.660;37.758;2022-11-14T00:10:44;26.83;41.87
75985;DHT22;65033;44.660;37.758;2022-11-14T00:12:06;26.82;41.93
75985;DHT22;65033;44.660;37.758;2022-11-14T00:13:28;26.83;41.87
75985;DHT22;65033;44.660;37.758;2022-11-14T00:14:50;26.83;41.89
75985;DHT22;65033;44.660;37.758;2022-11-14T00:16:12;26.83;41.87
75985;DHT22;65033;44.660;37.758;2022-11-14T00:17:35;26.84;41.81
75985;DHT22;65033;44.660;37.758;2022-11-14T00:18:57;26.83;41.85
75985;DHT22;65033;44.660;37.758;2022-11-14T00:20:19;26.83;41.84
75985;DHT22;65033;44.660;37.758;2022-11-14T00:21:42;26.83;41.84
75985;DHT22;65033;44.660;37.758;2022-11-14T00:23:04;26.83;41.78
75985;DHT22;65033;44.660;37.758;2022-11-14T00:24:26;26.82;41.81
75985;DHT22;65033;44.660;37.758;2022-11-14T00:25:49;26.82;41.81
75985;DHT22;65033;44.660;37.758;2022-11-14T00:27:11;26.83;41.78
75985;DHT22;65033;44.660;37.758;2022-11-14T00:28:33;26.82;41.74
75985;DHT22;65033;44.660;37.758;2022-11-14T00:29:55;26.83;41.75
75985;DHT22;65033;44.660;37.758;2022-11-14T00:31:17;26.82;41.76
75985;DHT22;65033;44.660;37.758;2022-11-14T00:32:39;26.81;41.74
75985;DHT22;65033;44.660;37.758;2022-11-14T00:34:01;26.82;41.74
75985;DHT22;65033;44.660;37.758;2022-11-14T00:35:23;26.82;41.74
75985;DHT22;65033;44.660;37.758;2022-11-14T00:36:45;26.82;41.69
75985;DHT22;65033;44.660;37.758;2022-11-14T00:38:07;26.82;41.69
75985;DHT22;65033;44.660;37.758;2022-11-14T00:39:29;26.82;41.71
75985;DHT22;65033;44.660;37.758;2022-11-14T00:40:53;26.82;41.67
75985;DHT22;65033;44.660;37.758;2022-11-14T00:42:14;26.81;41.65
75985;DHT22;65033;44.660;37.758;2022-11-14T00:43:37;26.81;41.63
75985;DHT22;65033;44.660;37.758;2022-11-14T00:44:58;26.80;41.68
75985;DHT22;65033;44.660;37.758;2022-11-14T00:46:20;26.81;41.64
75985;DHT22;65033;44.660;37.758;2022-11-14T00:47:42;26.81;41.62
75985;DHT22;65033;44.660;37.758;2022-11-14T00:49:05;26.80;41.61
75985;DHT22;65033;44.660;37.758;2022-11-14T00:50:27;26.81;41.62
75985;DHT22;65033;44.660;37.758;2022-11-14T00:51:49;26.80;41.60
75985;DHT22;65033;44.660;37.758;2022-11-14T00:53:11;26.80;41.58
75985;DHT22;65033;44.660;37.758;2022-11-14T00:54:33;26.80;41.62
75985;DHT22;65033;44.660;37.758;2022-11-14T00:55:57;26.79;41.55
75985;DHT22;65033;44.660;37.758;2022-11-14T00:57:19;26.79;41.53
75985;DHT22;65033;44.660;37.758;2022-11-14T00:58:41;26.80;41.52
75985;DHT22;65033;44.660;37.758;2022-11-14T01:00:06;26.80;41.54
75985;DHT22;65033;44.660;37.758;2022-11-14T01:01:29;26.79;41.52
75985;DHT22;65033;44.660;37.758;2022-11-14T01:02:50;26.79;41.50
75985;DHT22;65033;44.660;37.758;2022-11-14T01:04:17;26.80;41.49
75985;DHT22;65033;44.660;37.758;2022-11-14T01:05:40;26.79;41.49
75985;DHT22;65033;44.660;37.758;2022-11-14T01:07:03;26.79;41.50
75985;DHT22;65033;44.660;37.758;2022-11-14T01:08:25;26.78;41.46
75985;DHT22;65033;44.660;37.758;2022-11-14T01:09:47;26.77;41.49
75985;DHT22;65033;44.660;37.758;2022-11-14T01:11:12;26.79;41.42
75985;DHT22;65033;44.660;37.758;2022-11-14T01:12:35;26.78;41.42
75985;DHT22;65033;44.660;37.758;2022-11-14T01:13:57;26.79;41.39
75985;DHT22;65033;44.660;37.758;2022-11-14T01:15:19;26.79;41.40
75985;DHT22;65033;44.660;37.758;2022-11-14T01:16:41;26.78;41.36
75985;DHT22;65033;44.660;37.758;2022-11-14T01:18:03;26.78;41.40
75985;DHT22;65033;44.660;37.758;2022-11-14T01:19:25;26.77;41.40
75985;DHT22;65033;44.660;37.758;2022-11-14T01:20:48;26.77;41.33
75985;DHT22;65033;44.660;37.758;2022-11-14T01:22:09;26.78;41.34
75985;DHT22;65033;44.660;37.758;2022-11-14T01:23:32;26.78;41.35
75985;DHT22;65033;44.660;37.758;2022-11-14T01:24:54;26.77;41.36
75985;DHT22;65033;44.660;37.758;2022-11-14T01:26:20;26.76;41.32
75985;DHT22;65033;44.660;37.758;2022-11-14T01:27:42;26.77;41.33
75985;DHT22;65033;44.660;37.758;2022-11-14T01:29:05;26.76;41.31
75985;DHT22;65033;44.660;37.758;2022-11-14T01:30:26;26.77;41.33
75985;DHT22;65033;44.660;37.758;2022-11-14T01:31:49;26.77;41.29
75985;DHT22;65033;44.660;37.758;2022-11-14T01:33:11;26.75;41.32
75985;DHT22;65033;44.660;37.758;2022-11-14T01:34:33;26.76;41.29
75985;DHT22;65033;44.660;37.758;2022-11-14T01:35:58;26.76;41.26
75985;DHT22;65033;44.660;37.758;2022-11-14T01:37:20;26.76;41.29
75985;DHT22;65033;44.660;37.758;2022-11-14T01:38:42;26.76;41.26
75985;DHT22;65033;44.660;37.758;2022-11-14T01:40:06;26.76;41.25
75985;DHT22;65033;44.660;37.758;2022-11-14T01:41:29;26.75;41.21
75985;DHT22;65033;44.660;37.758;2022-11-14T01:44:55;26.75;41.24
75985;DHT22;65033;44.660;37.758;2022-11-14T01:46:21;26.75;41.23
75985;DHT22;65033;44.660;37.758;2022-11-14T01:47:44;26.75;41.22
75985;DHT22;65033;44.660;37.758;2022-11-14T01:49:13;26.75;41.16
75985;DHT22;65033;44.660;37.758;2022-11-14T01:50:35;26.73;41.20
75985;DHT22;65033;44.660;37.758;2022-11-14T01:52:01;26.73;41.18
75985;DHT22;65033;44.660;37.758;2022-11-14T01:53:24;26.72;41.18
75985;DHT22;65033;44.660;37.758;2022-11-14T01:54:49;26.73;41.17
75985;DHT22;65033;44.660;37.758;2022-11-14T01:56:14;26.72;41.15
75985;DHT22;65033;44.660;37.758;2022-11-14T01:57:42;26.72;41.08
75985;DHT22;65033;44.660;37.758;2022-11-14T01:59:07;26.75;41.14
75985;DHT22;65033;44.660;37.758;2022-11-14T02:00:29;26.73;41.15
75985;DHT22;65033;44.660;37.758;2022-11-14T02:01:54;26.72;41.19
75985;DHT22;65033;44.660;37.758;2022-11-14T02:03:18;26.73;41.13
75985;DHT22;65033;44.660;37.758;2022-11-14T02:04:44;26.71;41.10
75985;DHT22;65033;44.660;37.758;2022-11-14T02:06:09;26.73;41.07
75985;DHT22;65033;44.660;37.758;2022-11-14T02:07:36;26.72;41.08
75985;DHT22;65033;44.660;37.758;2022-11-14T02:09:00;26.73;41.04
75985;DHT22;65033;44.660;37.758;2022-11-14T02:10:23;26.71;41.05
75985;DHT22;65033;44.660;37.758;2022-11-14T02:11:46;26.73;41.07
75985;DHT22;65033;44.660;37.758;2022-11-14T02:13:09;26.72;41.04
75985;DHT22;65033;44.660;37.758;2022-11-14T02:14:32;26.71;41.05
75985;DHT22;65033;44.660;37.758;2022-11-14T02:15:55;26.70;41.07
75985;DHT22;65033;44.660;37.758;2022-11-14T02:17:17;26.72;41.02
75985;DHT22;65033;44.660;37.758;2022-11-14T02:18:49;26.72;41.04
75985;DHT22;65033;44.660;37.758;2022-11-14T02:20:20;26.72;40.95
75985;DHT22;65033;44.660;37.758;2022-11-14T02:21:42;26.72;40.98
75985;DHT22;65033;44.660;37.758;2022-11-14T02:23:04;26.72;40.98
75985;DHT22;65033;44.660;37.758;2022-11-14T02:24:26;26.72;40.94
75985;DHT22;65033;44.660;37.758;2022-11-14T02:25:48;26.72;40.96
75985;DHT22;65033;44.660;37.758;2022-11-14T02:27:10;26.71;40.93
75985;DHT22;65033;44.660;37.758;2022-11-14T02:28:33;26.72;40.91
75985;DHT22;65033;44.660;37.758;2022-11-14T02:30:02;26.71;40.89
75985;DHT22;65033;44.660;37.758;2022-11-14T02:31:24;26.71;40.91
75985;DHT22;65033;44.660;37.758;2022-11-14T02:32:46;26.70;40.86
75985;DHT22;65033;44.660;37.758;2022-11-14T02:34:28;26.71;40.91
75985;DHT22;65033;44.660;37.758;2022-11-14T02:35:52;26.71;40.84
75985;DHT22;65033;44.660;37.758;2022-11-14T02:37:14;26.71;40.88
75985;DHT22;65033;44.660;37.758;2022-11-14T02:38:36;26.70;40.83
75985;DHT22;65033;44.660;37.758;2022-11-14T02:39:58;26.70;40.79
75985;DHT22;65033;44.660;37.758;2022-11-14T02:41:20;26.69;40.84
75985;DHT22;65033;44.660;37.758;2022-11-14T02:42:42;26.69;40.82
75985;DHT22;65033;44.660;37.758;2022-11-14T02:44:04;26.69;40.82
75985;DHT22;65033;44.660;37.758;2022-11-14T02:45:26;26.71;40.80
75985;DHT22;65033;44.660;37.758;2022-11-14T02:46:48;26.70;40.79
75985;DHT22;65033;44.660;37.758;2022-11-14T02:48:10;26.70;40.78
75985;DHT22;65033;44.660;37.758;2022-11-14T02:49:32;26.69;40.73
75985;DHT22;65033;44.660;37.758;2022-11-14T02:50:55;26.69;40.78
75985;DHT22;65033;44.660;37.758;2022-11-14T02:52:18;26.69;40.75
75985;DHT22;65033;44.660;37.758;2022-11-14T02:53:39;26.70;40.73
75985;DHT22;65033;44.660;37.758;2022-11-14T02:55:01;26.70;40.72
75985;DHT22;65033;44.660;37.758;2022-11-14T02:56:23;26.68;40.72
75985;DHT22;65033;44.660;37.758;2022-11-14T02:57:46;26.69;40.74
75985;DHT22;65033;44.660;37.758;2022-11-14T02:59:07;26.69;40.71
75985;DHT22;65033;44.660;37.758;2022-11-14T03:00:30;26.70;40.70
75985;DHT22;65033;44.660;37.758;2022-11-14T03:01:53;26.69;40.68
75985;DHT22;65033;44.660;37.758;2022-11-14T03:03:15;26.69;40.71
75985;DHT22;65033;44.660;37.758;2022-11-14T03:04:37;26.69;40.68
75985;DHT22;65033;44.660;37.758;2022-11-14T03:06:01;26.67;40.65
75985;DHT22;65033;44.660;37.758;2022-11-14T03:07:23;26.68;40.65
75985;DHT22;65033;44.660;37.758;2022-11-14T03:08:45;26.68;40.68
75985;DHT22;65033;44.660;37.758;2022-11-14T03:10:07;26.68;40.65
75985;DHT22;65033;44.660;37.758;2022-11-14T03:11:30;26.69;40.65
75985;DHT22;65033;44.660;37.758;2022-11-14T03:12:53;26.68;40.65
75985;DHT22;65033;44.660;37.758;2022-11-14T03:14:15;26.67;40.65
75985;DHT22;65033;44.660;37.758;2022-11-14T03:15:37;26.67;40.59
75985;DHT22;65033;44.660;37.758;2022-11-14T03:16:59;26.67;40.59
75985;DHT22;65033;44.660;37.758;2022-11-14T03:18:21;26.67;40.59
75985;DHT22;65033;44.660;37.758;2022-11-14T03:19:43;26.66;40.55
75985;DHT22;65033;44.660;37.758;2022-11-14T03:21:08;26.67;40.59
75985;DHT22;65033;44.660;37.758;2022-11-14T03:22:30;26.66;40.57
75985;DHT22;65033;44.660;37.758;2022-11-14T03:23:52;26.67;40.59
75985;DHT22;65033;44.660;37.758;2022-11-14T03:25:15;26.67;40.59
75985;DHT22;65033;44.660;37.758;2022-11-14T03:26:37;26.66;40.52
75985;DHT22;65033;44.660;37.758;2022-11-14T03:27:59;26.67;40.55
75985;DHT22;65033;44.660;37.758;2022-11-14T03:29:21;26.67;40.49
75985;DHT22;65033;44.660;37.758;2022-11-14T03:30:43;26.65;40.59
75985;DHT22;65033;44.660;37.758;2022-11-14T03:32:06;26.67;40.49
75985;DHT22;65033;44.660;37.758;2022-11-14T03:33:28;26.65;40.54
75985;DHT22;65033;44.660;37.758;2022-11-14T03:34:50;26.66;40.50
75985;DHT22;65033;44.660;37.758;2022-11-14T03:36:13;26.67;40.47
75985;DHT22;65033;44.660;37.758;2022-11-14T03:37:35;26.65;40.47
75985;DHT22;65033;44.660;37.758;2022-11-14T03:38:57;26.66;40.54
75985;DHT22;65033;44.660;37.758;2022-11-14T03:40:19;26.65;40.50
75985;DHT22;65033;44.660;37.758;2022-11-14T03:41:41;26.65;40.44
75985;DHT22;65033;44.660;37.758;2022-11-14T03:43:03;26.65;40.46
75985;DHT22;65033;44.660;37.758;2022-11-14T03:44:25;26.65;40.41
75985;DHT22;65033;44.660;37.758;2022-11-14T03:45:47;26.64;40.45
75985;DHT22;65033;44.660;37.758;2022-11-14T03:47:09;26.63;40.42
75985;DHT22;65033;44.660;37.758;2022-11-14T03:48:31;26.65;40.42
75985;DHT22;65033;44.660;37.758;2022-11-14T03:49:53;26.64;40.43
75985;DHT22;65033;44.660;37.758;2022-11-14T03:51:16;26.64;40.42
75985;DHT22;65033;44.660;37.758;2022-11-14T03:52:38;26.64;40.38
75985;DHT22;65033;44.660;37.758;2022-11-14T03:54:00;26.63;40.42
75985;DHT22;65033;44.660;37.758;2022-11-14T03:55:22;26.64;40.42
75985;DHT22;65033;44.660;37.758;2022-11-14T03:56:45;26.63;40.36
75985;DHT22;65033;44.660;37.758;2022-11-14T03:58:07;26.64;40.39
75985;DHT22;65033;44.660;37.758;2022-11-14T03:59:29;26.63;40.37
75985;DHT22;65033;44.660;37.758;2022-11-14T04:00:51;26.62;40.35
75985;DHT22;65033;44.660;37.758;2022-11-14T04:02:15;26.62;40.33
75985;DHT22;65033;44.660;37.758;2022-11-14T04:03:36;26.63;40.35
75985;DHT22;65033;44.660;37.758;2022-11-14T04:04:59;26.64;40.32
75985;DHT22;65033;44.660;37.758;2022-11-14T04:06:22;26.63;40.31
75985;DHT22;65033;44.660;37.758;2022-11-14T04:07:45;26.62;40.39
75985;DHT22;65033;44.660;37.758;2022-11-14T04:09:09;26.63;40.31
75985;DHT22;65033;44.660;37.758;2022-11-14T04:10:31;26.63;40.34
75985;DHT22;65033;44.660;37.758;2022-11-14T04:11:53;26.62;40.32
75985;DHT22;65033;44.660;37.758;2022-11-14T04:13:15;26.62;40.30
75985;DHT22;65033;44.660;37.758;2022-11-14T04:14:37;26.63;40.31
75985;DHT22;65033;44.660;37.758;2022-11-14T04:16:00;26.62;40.26
75985;DHT22;65033;44.660;37.758;2022-11-14T04:17:21;26.61;40.28
75985;DHT22;65033;44.660;37.758;2022-11-14T04:18:43;26.62;40.22
75985;DHT22;65033;44.660;37.758;2022-11-14T04:20:06;26.63;40.22
75985;DHT22;65033;44.660;37.758;2022-11-14T04:21:30;26.62;40.18
75985;DHT22;65033;44.660;37.758;2022-11-14T04:22:52;26.60;40.20
75985;DHT22;65033;44.660;37.758;2022-11-14T04:24:15;26.62;40.20
75985;DHT22;65033;44.660;37.758;2022-11-14T04:25:37;26.61;40.28
75985;DHT22;65033;44.660;37.758;2022-11-14T04:26:58;26.62;40.23
75985;DHT22;65033;44.660;37.758;2022-11-14T04:28:20;26.61;40.20
75985;DHT22;65033;44.660;37.758;2022-11-14T04:29:42;26.61;40.20
75985;DHT22;65033;44.660;37.758;2022-11-14T04:31:04;26.61;40.20
75985;DHT22;65033;44.660;37.758;2022-11-14T04:32:27;26.61;40.20
75985;DHT22;65033;44.660;37.758;2022-11-14T04:33:48;26.60;40.21
75985;DHT22;65033;44.660;37.758;2022-11-14T04:35:11;26.61;40.17
75985;DHT22;65033;44.660;37.758;2022-11-14T04:36:34;26.61;40.14
75985;DHT22;65033;44.660;37.758;2022-11-14T04:37:57;26.60;40.18
75985;DHT22;65033;44.660;37.758;2022-11-14T04:39:18;26.61;40.15
75985;DHT22;65033;44.660;37.758;2022-11-14T04:40:47;26.61;40.10
75985;DHT22;65033;44.660;37.758;2022-11-14T04:42:09;26.60;40.12
75985;DHT22;65033;44.660;37.758;2022-11-14T04:43:31;26.60;40.11
75985;DHT22;65033;44.660;37.758;2022-11-14T04:44:53;26.60;40.12
75985;DHT22;65033;44.660;37.758;2022-11-14T04:46:15;26.60;40.13
75985;DHT22;65033;44.660;37.758;2022-11-14T04:47:37;26.60;40.13
75985;DHT22;65033;44.660;37.758;2022-11-14T04:48:59;26.60;40.11
75985;DHT22;65033;44.660;37.758;2022-11-14T04:50:21;26.60;40.06
75985;DHT22;65033;44.660;37.758;2022-11-14T04:51:45;26.58;40.15
75985;DHT22;65033;44.660;37.758;2022-11-14T04:53:07;26.58;40.10
75985;DHT22;65033;44.660;37.758;2022-11-14T04:54:28;26.60;40.08
75985;DHT22;65033;44.660;37.758;2022-11-14T04:55:50;26.60;40.06
75985;DHT22;65033;44.660;37.758;2022-11-14T04:57:13;26.58;40.04
75985;DHT22;65033;44.660;37.758;2022-11-14T04:58:35;26.60;40.03
75985;DHT22;65033;44.660;37.758;2022-11-14T04:59:57;26.61;40.04
75985;DHT22;65033;44.660;37.758;2022-11-14T05:01:19;26.58;40.04
75985;DHT22;65033;44.660;37.758;2022-11-14T05:02:42;26.58;40.10
75985;DHT22;65033;44.660;37.758;2022-11-14T05:04:04;26.60;40.05
75985;DHT22;65033;44.660;37.758;2022-11-14T05:05:26;26.61;40.01
75985;DHT22;65033;44.660;37.758;2022-11-14T05:06:50;26.61;39.97
75985;DHT22;65033;44.660;37.758;2022-11-14T05:08:12;26.62;39.98
75985;DHT22;65033;44.660;37.758;2022-11-14T05:09:34;26.63;39.93
75985;DHT22;65033;44.660;37.758;2022-11-14T05:10:57;26.64;39.94
75985;DHT22;65033;44.660;37.758;2022-11-14T05:12:19;26.63;39.94
75985;DHT22;65033;44.660;37.758;2022-11-14T05:13:41;26.66;39.94
75985;DHT22;65033;44.660;37.758;2022-11-14T05:15:03;26.67;39.92
75985;DHT22;65033;44.660;37.758;2022-11-14T05:16:26;26.67;39.86
75985;DHT22;65033;44.660;37.758;2022-11-14T05:17:47;26.67;39.83
75985;DHT22;65033;44.660;37.758;2022-11-14T05:19:09;26.67;39.82
75985;DHT22;65033;44.660;37.758;2022-11-14T05:20:32;26.68;39.77
75985;DHT22;65033;44.660;37.758;2022-11-14T05:21:55;26.68;39.73
75985;DHT22;65033;44.660;37.758;2022-11-14T05:23:19;26.70;39.72
75985;DHT22;65033;44.660;37.758;2022-11-14T05:24:42;26.68;39.75
75985;DHT22;65033;44.660;37.758;2022-11-14T05:26:06;26.70;39.77
75985;DHT22;65033;44.660;37.758;2022-11-14T05:27:29;26.69;39.75
75985;DHT22;65033;44.660;37.758;2022-11-14T05:28:51;26.70;39.78
75985;DHT22;65033;44.660;37.758;2022-11-14T05:30:13;26.68;39.78
75985;DHT22;65033;44.660;37.758;2022-11-14T05:31:35;26.70;39.71
75985;DHT22;65033;44.660;37.758;2022-11-14T05:32:58;26.70;39.71
75985;DHT22;65033;44.660;37.758;2022-11-14T05:34:21;26.72;39.71
75985;DHT22;65033;44.660;37.758;2022-11-14T05:35:43;26.73;39.72
75985;DHT22;65033;44.660;37.758;2022-11-14T05:37:06;26.73;39.68
75985;DHT22;65033;44.660;37.758;2022-11-14T05:38:29;26.75;39.72
75985;DHT22;65033;44.660;37.758;2022-11-14T05:39:51;26.77;39.66
75985;DHT22;65033;44.660;37.758;2022-11-14T05:41:15;26.79;39.69
75985;DHT22;65033;44.660;37.758;2022-11-14T05:42:37;26.80;39.67
75985;DHT22;65033;44.660;37.758;2022-11-14T05:43:59;26.84;39.67
75985;DHT22;65033;44.660;37.758;2022-11-14T05:45:21;26.85;39.65
75985;DHT22;65033;44.660;37.758;2022-11-14T05:46:43;26.87;39.60
75985;DHT22;65033;44.660;37.758;2022-11-14T05:48:05;26.90;39.58
75985;DHT22;65033;44.660;37.758;2022-11-14T05:49:28;26.93;39.60
75985;DHT22;65033;44.660;37.758;2022-11-14T05:50:53;26.96;39.49
75985;DHT22;65033;44.660;37.758;2022-11-14T05:52:17;26.99;39.44
75985;DHT22;65033;44.660;37.758;2022-11-14T05:53:39;27.01;39.44
75985;DHT22;65033;44.660;37.758;2022-11-14T05:55:02;27.04;39.38
75985;DHT22;65033;44.660;37.758;2022-11-14T05:56:24;27.08;39.33
75985;DHT22;65033;44.660;37.758;2022-11-14T05:57:45;27.09;39.25
75985;DHT22;65033;44.660;37.758;2022-11-14T05:59:08;27.12;39.20
75985;DHT22;65033;44.660;37.758;2022-11-14T06:00:30;27.15;39.13
75985;DHT22;65033;44.660;37.758;2022-11-14T06:01:57;27.17;39.16
75985;DHT22;65033;44.660;37.758;2022-11-14T06:03:19;27.21;39.15
75985;DHT22;65033;44.660;37.758;2022-11-14T06:04:41;27.23;39.11
75985;DHT22;65033;44.660;37.758;2022-11-14T06:06:05;27.24;39.11
75985;DHT22;65033;44.660;37.758;2022-11-14T06:07:28;27.27;39.06
75985;DHT22;65033;44.660;37.758;2022-11-14T06:08:52;27.30;38.99
75985;DHT22;65033;44.660;37.758;2022-11-14T06:10:14;27.32;39.01
75985;DHT22;65033;44.660;37.758;2022-11-14T06:11:36;27.35;38.85
75985;DHT22;65033;44.660;37.758;2022-11-14T06:12:58;27.37;38.88
75985;DHT22;65033;44.660;37.758;2022-11-14T06:14:20;27.40;38.90
75985;DHT22;65033;44.660;37.758;2022-11-14T06:15:43;27.43;38.84
75985;DHT22;65033;44.660;37.758;2022-11-14T06:17:04;27.43;38.81
75985;DHT22;65033;44.660;37.758;2022-11-14T06:18:27;27.44;38.76
75985;DHT22;65033;44.660;37.758;2022-11-14T06:19:49;27.47;38.75
75985;DHT22;65033;44.660;37.758;2022-11-14T06:21:12;27.49;38.66
75985;DHT22;65033;44.660;37.758;2022-11-14T06:22:36;27.52;38.46
75985;DHT22;65033;44.660;37.758;2022-11-14T06:23:58;27.52;38.44
75985;DHT22;65033;44.660;37.758;2022-11-14T06:25:20;27.52;38.19
75985;DHT22;65033;44.660;37.758;2022-11-14T06:26:42;27.50;38.27
75985;DHT22;65033;44.660;37.758;2022-11-14T06:28:04;27.51;38.44
75985;DHT22;65033;44.660;37.758;2022-11-14T06:29:26;27.50;38.42
75985;DHT22;65033;44.660;37.758;2022-11-14T06:30:51;27.50;38.53
75985;DHT22;65033;44.660;37.758;2022-11-14T06:32:16;27.51;38.46
75985;DHT22;65033;44.660;37.758;2022-11-14T06:33:38;27.51;38.42
75985;DHT22;65033;44.660;37.758;2022-11-14T06:35:00;27.50;38.48
75985;DHT22;65033;44.660;37.758;2022-11-14T06:36:22;27.49;38.49
75985;DHT22;65033;44.660;37.758;2022-11-14T06:37:46;27.47;38.59
75985;DHT22;65033;44.660;37.758;2022-11-14T06:39:08;27.45;38.59
75985;DHT22;65033;44.660;37.758;2022-11-14T06:40:30;27.45;38.65
75985;DHT22;65033;44.660;37.758;2022-11-14T06:41:52;27.46;38.69
75985;DHT22;65033;44.660;37.758;2022-11-14T06:43:13;27.46;38.63
75985;DHT22;65033;44.660;37.758;2022-11-14T06:44:35;27.45;38.74
75985;DHT22;65033;44.660;37.758;2022-11-14T06:45:57;27.43;38.68
75985;DHT22;65033;44.660;37.758;2022-11-14T06:47:19;27.44;38.44
75985;DHT22;65033;44.660;37.758;2022-11-14T06:48:42;27.44;38.69
75985;DHT22;65033;44.660;37.758;2022-11-14T06:50:05;27.43;38.67
75985;DHT22;65033;44.660;37.758;2022-11-14T06:51:28;27.44;38.40
75985;DHT22;65033;44.660;37.758;2022-11-14T06:52:51;27.45;38.60
75985;DHT22;65033;44.660;37.758;2022-11-14T06:54:13;27.44;38.65
75985;DHT22;65033;44.660;37.758;2022-11-14T06:55:35;27.43;38.67
75985;DHT22;65033;44.660;37.758;2022-11-14T06:56:57;27.42;38.69
75985;DHT22;65033;44.660;37.758;2022-11-14T06:58:19;27.42;38.73
75985;DHT22;65033;44.660;37.758;2022-11-14T06:59:41;27.41;38.78
75985;DHT22;65033;44.660;37.758;2022-11-14T07:01:04;27.42;38.78
75985;DHT22;65033;44.660;37.758;2022-11-14T07:02:28;27.42;38.81
75985;DHT22;65033;44.660;37.758;2022-11-14T07:03:49;27.41;38.75
75985;DHT22;65033;44.660;37.758;2022-11-14T07:05:11;27.43;38.76
75985;DHT22;65033;44.660;37.758;2022-11-14T07:06:33;27.42;38.78
75985;DHT22;65033;44.660;37.758;2022-11-14T07:07:58;27.43;38.70
75985;DHT22;65033;44.660;37.758;2022-11-14T07:09:19;27.44;38.69
75985;DHT22;65033;44.660;37.758;2022-11-14T07:10:41;27.43;38.63
75985;DHT22;65033;44.660;37.758;2022-11-14T07:12:04;27.42;38.73
75985;DHT22;65033;44.660;37.758;2022-11-14T07:13:26;27.42;38.64
75985;DHT22;65033;44.660;37.758;2022-11-14T07:14:48;27.43;38.69
75985;DHT22;65033;44.660;37.758;2022-11-14T07:16:10;27.42;38.72
75985;DHT22;65033;44.660;37.758;2022-11-14T07:17:33;27.41;38.71
75985;DHT22;65033;44.660;37.758;2022-11-14T07:18:57;27.41;38.79
75985;DHT22;65033;44.660;37.758;2022-11-14T07:20:19;27.40;38.82
75985;DHT22;65033;44.660;37.758;2022-11-14T07:21:41;27.41;38.82
75985;DHT22;65033;44.660;37.758;2022-11-14T07:23:04;27.39;38.81
75985;DHT22;65033;44.660;37.758;2022-11-14T07:24:26;27.38;38.78
75985;DHT22;65033;44.660;37.758;2022-11-14T07:25:48;27.38;38.79
75985;DHT22;65033;44.660;37.758;2022-11-14T07:27:11;27.37;38.78
75985;DHT22;65033;44.660;37.758;2022-11-14T07:28:33;27.36;38.81
75985;DHT22;65033;44.660;37.758;2022-11-14T07:29:56;27.36;38.82
75985;DHT22;65033;44.660;37.758;2022-11-14T07:31:18;27.35;38.87
75985;DHT22;65033;44.660;37.758;2022-11-14T07:32:41;27.35;38.88
75985;DHT22;65033;44.660;37.758;2022-11-14T07:34:03;27.34;38.87
75985;DHT22;65033;44.660;37.758;2022-11-14T07:35:26;27.32;38.89
75985;DHT22;65033;44.660;37.758;2022-11-14T07:36:48;27.31;38.91
75985;DHT22;65033;44.660;37.758;2022-11-14T07:38:12;27.32;38.86
75985;DHT22;65033;44.660;37.758;2022-11-14T07:39:34;27.32;38.91
75985;DHT22;65033;44.660;37.758;2022-11-14T07:40:57;27.32;38.98
75985;DHT22;65033;44.660;37.758;2022-11-14T07:42:20;27.31;38.89
75985;DHT22;65033;44.660;37.758;2022-11-14T07:43:42;27.30;38.94
75985;DHT22;65033;44.660;37.758;2022-11-14T07:45:05;27.31;38.86
75985;DHT22;65033;44.660;37.758;2022-11-14T07:46:27;27.29;38.91
75985;DHT22;65033;44.660;37.758;2022-11-14T07:47:48;27.29;38.91
75985;DHT22;65033;44.660;37.758;2022-11-14T07:49:10;27.30;38.91
75985;DHT22;65033;44.660;37.758;2022-11-14T07:50:32;27.28;38.93
75985;DHT22;65033;44.660;37.758;2022-11-14T07:51:55;27.27;38.94
75985;DHT22;65033;44.660;37.758;2022-11-14T07:53:18;27.27;38.90
75985;DHT22;65033;44.660;37.758;2022-11-14T07:54:40;27.25;38.97
75985;DHT22;65033;44.660;37.758;2022-11-14T07:56:04;27.26;39.01
75985;DHT22;65033;44.660;37.758;2022-11-14T07:57:26;27.26;39.03
75985;DHT22;65033;44.660;37.758;2022-11-14T07:58:49;27.25;39.04
75985;DHT22;65033;44.660;37.758;2022-11-14T08:00:12;27.26;39.06
75985;DHT22;65033;44.660;37.758;2022-11-14T08:01:36;27.25;38.96
75985;DHT22;65033;44.660;37.758;2022-11-14T08:02:58;27.24;38.98
75985;DHT22;65033;44.660;37.758;2022-11-14T08:04:20;27.23;38.98
75985;DHT22;65033;44.660;37.758;2022-11-14T08:05:42;27.23;39.01
75985;DHT22;65033;44.660;37.758;2022-11-14T08:07:04;27.22;39.04
75985;DHT22;65033;44.660;37.758;2022-11-14T08:08:27;27.21;39.04
75985;DHT22;65033;44.660;37.758;2022-11-14T08:09:49;27.22;39.03
75985;DHT22;65033;44.660;37.758;2022-11-14T08:11:11;27.22;38.98
75985;DHT22;65033;44.660;37.758;2022-11-14T08:12:34;27.22;39.02
75985;DHT22;65033;44.660;37.758;2022-11-14T08:13:56;27.20;39.03
75985;DHT22;65033;44.660;37.758;2022-11-14T08:15:18;27.22;39.01
75985;DHT22;65033;44.660;37.758;2022-11-14T08:16:40;27.21;39.01
75985;DHT22;65033;44.660;37.758;2022-11-14T08:18:02;27.20;39.01
75985;DHT22;65033;44.660;37.758;2022-11-14T08:19:24;27.20;39.02
75985;DHT22;65033;44.660;37.758;2022-11-14T08:20:47;27.20;39.06
75985;DHT22;65033;44.660;37.758;2022-11-14T08:22:09;27.19;39.07
75985;DHT22;65033;44.660;37.758;2022-11-14T08:23:33;27.17;39.06
75985;DHT22;65033;44.660;37.758;2022-11-14T08:24:55;27.19;39.06
75985;DHT22;65033;44.660;37.758;2022-11-14T08:26:17;27.16;39.04
75985;DHT22;65033;44.660;37.758;2022-11-14T08:27:39;27.17;39.09
75985;DHT22;65033;44.660;37.758;2022-11-14T08:29:02;27.16;39.03
75985;DHT22;65033;44.660;37.758;2022-11-14T08:30:24;27.16;39.08
75985;DHT22;65033;44.660;37.758;2022-11-14T08:31:46;27.15;39.10
75985;DHT22;65033;44.660;37.758;2022-11-14T08:33:08;27.14;39.07
75985;DHT22;65033;44.660;37.758;2022-11-14T08:34:30;27.15;39.07
75985;DHT22;65033;44.660;37.758;2022-11-14T08:35:52;27.15;39.07